createdAt,value
2023-03-12T00:00:27.492Z,93.53
2023-03-12T00:01:30.377Z,93.53
2023-03-12T00:02:27.532Z,93.43
2023-03-12T00:03:27.527Z,93.43
2023-03-12T00:04:27.437Z,93.38
2023-03-12T00:05:27.406Z,93.28
2023-03-12T00:06:27.409Z,93.28
2023-03-12T00:07:27.411Z,93.18
2023-03-12T00:08:27.377Z,93.07
2023-03-12T00:09:27.358Z,93.11
2023-03-12T00:10:27.376Z,93.07
2023-03-12T00:11:27.348Z,93.07
2023-03-12T00:12:27.349Z,93.11
2023-03-12T00:13:27.343Z,93.07
2023-03-12T00:14:27.316Z,93.07
2023-03-12T00:15:27.288Z,93.07
2023-03-12T00:16:27.360Z,92.96
2023-03-12T00:17:27.270Z,92.96
2023-03-12T00:18:27.273Z,92.96
2023-03-12T00:19:27.263Z,92.96
2023-03-12T00:20:27.280Z,93.18
2023-03-12T00:21:27.219Z,93.18
2023-03-12T00:22:27.240Z,93.18
2023-03-12T00:23:27.208Z,93.18
2023-03-12T00:24:27.180Z,93.18
2023-03-12T00:25:27.160Z,93.18
2023-03-12T00:26:27.160Z,93.18
2023-03-12T00:27:27.138Z,93.28
2023-03-12T00:28:27.164Z,93.28
2023-03-12T00:29:27.130Z,93.18
2023-03-12T00:30:27.102Z,93.18
2023-03-12T00:31:27.223Z,93.18
2023-03-12T00:32:27.142Z,93.18
2023-03-12T00:33:27.106Z,93.18
2023-03-12T00:34:27.067Z,93.18
2023-03-12T00:35:27.075Z,93.18
2023-03-12T00:36:27.059Z,93.18
2023-03-12T00:37:27.017Z,93.18
2023-03-12T00:38:27.008Z,93.24
2023-03-12T00:39:26.977Z,93.24
2023-03-12T00:40:27.004Z,93.24
2023-03-12T00:41:26.970Z,93.13
2023-03-12T00:42:26.946Z,93.02
2023-03-12T00:43:26.952Z,93.07
2023-03-12T00:44:26.923Z,93.07
2023-03-12T00:45:26.900Z,93.07
2023-03-12T00:46:26.961Z,93.07
2023-03-12T00:47:26.906Z,93.07
2023-03-12T00:48:26.900Z,93.18
2023-03-12T00:49:26.867Z,93.13
2023-03-12T00:50:26.852Z,93.24
2023-03-12T00:51:26.849Z,93.34
2023-03-12T00:52:26.823Z,93.44
2023-03-12T00:53:26.833Z,93.44
2023-03-12T00:54:26.811Z,93.44
2023-03-12T00:55:26.792Z,93.44
2023-03-12T00:56:26.782Z,93.34
2023-03-12T00:57:26.772Z,93.34
2023-03-12T00:58:26.772Z,93.34
2023-03-12T00:59:26.744Z,93.24
2023-03-12T01:00:26.810Z,93.24
2023-03-12T01:01:26.703Z,93.13
2023-03-12T01:02:26.706Z,93.02
2023-03-12T01:03:26.707Z,93.02
2023-03-12T01:04:26.828Z,92.92
2023-03-12T01:05:26.687Z,92.92
2023-03-12T01:06:26.653Z,92.92
2023-03-12T01:07:26.645Z,92.92
2023-03-12T01:08:26.639Z,92.92
2023-03-12T01:09:26.617Z,92.92
2023-03-12T01:10:26.610Z,92.96
2023-03-12T01:11:26.585Z,92.96
2023-03-12T01:12:26.636Z,92.96
2023-03-12T01:13:26.584Z,93.07
2023-03-12T01:14:26.560Z,93.07
2023-03-12T01:15:26.540Z,93.07
2023-03-12T01:16:26.573Z,93.07
2023-03-12T01:17:26.537Z,93.07
2023-03-12T01:18:26.549Z,93.18
2023-03-12T01:19:26.498Z,93.18
2023-03-12T01:20:26.489Z,93.18
2023-03-12T01:21:26.482Z,93.18
2023-03-12T01:22:26.507Z,93.28
2023-03-12T01:23:26.447Z,93.28
2023-03-12T01:24:26.459Z,93.28
2023-03-12T01:25:26.428Z,93.28
2023-03-12T01:26:26.423Z,93.34
2023-03-12T01:27:26.409Z,93.34
2023-03-12T01:28:26.389Z,93.44
2023-03-12T01:29:26.377Z,93.34
2023-03-12T01:30:26.365Z,93.34
2023-03-12T01:31:26.413Z,93.34
2023-03-12T01:32:26.350Z,93.34
2023-03-12T01:33:26.322Z,93.24
2023-03-12T01:34:26.334Z,93.18
2023-03-12T01:35:26.395Z,93.07
2023-03-12T01:36:26.331Z,93.18
2023-03-12T01:37:26.276Z,93.18
2023-03-12T01:38:26.268Z,93.18
2023-03-12T01:39:26.256Z,93.18
2023-03-12T01:40:26.238Z,93.18
2023-03-12T01:41:26.238Z,93.18
2023-03-12T01:42:26.211Z,93.18
2023-03-12T01:43:26.192Z,93.18
2023-03-12T01:44:26.192Z,93.18
2023-03-12T01:45:26.210Z,93.28
2023-03-12T01:46:26.165Z,93.28
2023-03-12T01:47:26.134Z,93.28
2023-03-12T01:48:26.131Z,93.28
2023-03-12T01:49:26.143Z,93.38
2023-03-12T01:50:26.102Z,93.38
2023-03-12T01:51:26.143Z,93.38
2023-03-12T01:52:26.093Z,93.38
2023-03-12T01:53:26.075Z,93.49
2023-03-12T01:54:26.096Z,93.49
2023-03-12T01:55:26.043Z,93.49
2023-03-12T01:56:26.049Z,93.59
2023-03-12T01:57:26.020Z,93.80
2023-03-12T01:58:26.014Z,93.91
2023-03-12T01:59:26.020Z,93.91
2023-03-12T02:00:25.990Z,93.91
2023-03-12T02:01:26.026Z,93.91
2023-03-12T02:02:25.976Z,93.80
2023-03-12T02:03:25.929Z,93.80
2023-03-12T02:04:25.927Z,93.80
2023-03-12T02:05:25.946Z,93.70
2023-03-12T02:06:25.925Z,93.63
2023-03-12T02:07:25.894Z,93.63
2023-03-12T02:08:25.880Z,93.63
2023-03-12T02:09:25.909Z,93.63
2023-03-12T02:10:25.880Z,93.74
2023-03-12T02:11:25.853Z,93.74
2023-03-12T02:12:25.832Z,93.85
2023-03-12T02:13:25.826Z,93.85
2023-03-12T02:14:25.835Z,93.95
2023-03-12T02:15:25.812Z,93.95
2023-03-12T02:16:25.850Z,93.95
2023-03-12T02:17:25.776Z,93.95
2023-03-12T02:18:25.760Z,93.95
2023-03-12T02:19:25.770Z,93.95
2023-03-12T02:20:25.759Z,93.95
2023-03-12T02:21:25.755Z,93.95
2023-03-12T02:22:25.710Z,93.95
2023-03-12T02:23:25.702Z,93.95
2023-03-12T02:24:25.793Z,93.95
2023-03-12T02:25:25.693Z,94.06
2023-03-12T02:26:25.664Z,94.06
2023-03-12T02:27:25.683Z,94.06
2023-03-12T02:28:25.637Z,94.06
2023-03-12T02:29:25.664Z,94.06
2023-03-12T02:30:25.610Z,94.06
2023-03-12T02:31:25.670Z,93.95
2023-03-12T02:32:25.635Z,93.95
2023-03-12T02:33:25.577Z,93.95
2023-03-12T02:34:25.591Z,93.95
2023-03-12T02:35:25.560Z,93.95
2023-03-12T02:36:25.547Z,93.85
2023-03-12T02:37:25.538Z,93.85
2023-03-12T02:38:25.510Z,93.95
2023-03-12T02:39:25.501Z,93.95
2023-03-12T02:40:25.511Z,94.06
2023-03-12T02:41:25.497Z,94.01
2023-03-12T02:42:25.452Z,94.01
2023-03-12T02:43:25.441Z,94.01
2023-03-12T02:44:25.490Z,94.01
2023-03-12T02:45:25.440Z,94.01
2023-03-12T02:46:25.501Z,94.01
2023-03-12T02:47:26.420Z,93.91
2023-03-12T02:48:25.397Z,93.91
2023-03-12T02:49:25.382Z,93.91
2023-03-12T02:50:25.373Z,93.91
2023-03-12T02:51:25.378Z,93.91
2023-03-12T02:52:25.332Z,93.80
2023-03-12T02:53:25.330Z,93.91
2023-03-12T02:54:25.304Z,93.80
2023-03-12T02:55:25.322Z,93.80
2023-03-12T02:56:25.305Z,93.91
2023-03-12T02:57:25.271Z,93.91
2023-03-12T02:58:25.273Z,93.91
2023-03-12T02:59:25.273Z,93.80
2023-03-12T03:00:25.249Z,93.80
2023-03-12T03:01:25.279Z,93.80
2023-03-12T03:02:25.247Z,93.80
2023-03-12T03:03:25.213Z,93.91
2023-03-12T03:04:25.237Z,93.80
2023-03-12T03:05:25.203Z,93.80
2023-03-12T03:06:25.164Z,93.80
2023-03-12T03:07:25.161Z,93.70
2023-03-12T03:08:25.140Z,93.66
2023-03-12T03:09:25.141Z,93.66
2023-03-12T03:10:25.137Z,93.66
2023-03-12T03:11:25.138Z,93.76
2023-03-12T03:12:25.103Z,93.76
2023-03-12T03:13:25.108Z,93.66
2023-03-12T03:14:25.070Z,93.66
2023-03-12T03:15:25.081Z,93.55
2023-03-12T03:16:25.042Z,93.55
2023-03-12T03:17:25.058Z,93.44
2023-03-12T03:18:25.032Z,93.44
2023-03-12T03:19:25.010Z,93.34
2023-03-12T03:20:25.019Z,93.34
2023-03-12T03:21:24.984Z,93.24
2023-03-12T03:22:24.979Z,93.34
2023-03-12T03:23:24.966Z,93.24
2023-03-12T03:24:24.960Z,93.24
2023-03-12T03:25:24.944Z,93.13
2023-03-12T03:26:24.923Z,93.13
2023-03-12T03:27:24.936Z,93.13
2023-03-12T03:28:24.893Z,93.13
2023-03-12T03:29:24.886Z,93.13
2023-03-12T03:30:24.891Z,93.13
2023-03-12T03:31:24.947Z,93.13
2023-03-12T03:32:24.870Z,93.13
2023-03-12T03:33:24.832Z,93.13
2023-03-12T03:34:24.830Z,93.13
2023-03-12T03:35:24.876Z,93.13
2023-03-12T03:36:24.791Z,93.24
2023-03-12T03:37:24.808Z,93.24
2023-03-12T03:38:24.766Z,93.13
2023-03-12T03:39:24.761Z,93.09
2023-03-12T03:40:24.742Z,93.09
2023-03-12T03:41:24.744Z,93.09
2023-03-12T03:42:24.742Z,93.09
2023-03-12T03:43:24.725Z,92.99
2023-03-12T03:44:24.702Z,92.99
2023-03-12T03:45:24.701Z,92.99
2023-03-12T03:46:24.700Z,93.09
2023-03-12T03:47:24.717Z,92.99
2023-03-12T03:48:24.678Z,92.99
2023-03-12T03:49:24.644Z,92.88
2023-03-12T04:03:03.571Z,92.94
2023-03-12T04:04:03.545Z,92.83
2023-03-12T04:05:03.498Z,92.83
2023-03-12T04:06:03.565Z,92.63
2023-03-12T04:07:03.491Z,92.52
2023-03-12T04:08:03.498Z,92.52
2023-03-12T04:09:03.472Z,92.52
2023-03-12T04:10:03.507Z,92.00
2023-03-12T04:11:03.438Z,91.68
2023-03-12T04:12:03.424Z,91.58
2023-03-12T04:13:03.410Z,91.58
2023-03-12T04:14:03.417Z,91.47
2023-03-12T04:15:03.388Z,91.37
2023-03-12T04:16:03.481Z,91.27
2023-03-12T04:17:03.363Z,91.16
2023-03-12T04:18:03.425Z,91.05
2023-03-12T04:19:03.353Z,91.01
2023-03-12T04:20:03.330Z,91.12
2023-03-12T04:21:03.361Z,91.01
2023-03-12T04:22:03.308Z,91.01
2023-03-12T04:23:03.268Z,91.01
2023-03-12T04:24:03.305Z,91.01
2023-03-12T04:25:03.261Z,90.91
2023-03-12T04:26:03.260Z,90.80
2023-03-12T04:27:03.239Z,90.70
2023-03-12T04:28:03.248Z,90.59
2023-03-12T04:29:03.227Z,90.49
2023-03-12T04:30:03.228Z,90.38
2023-03-12T04:31:03.300Z,90.28
2023-03-12T04:32:03.188Z,89.97
2023-03-12T04:33:03.163Z,89.54
2023-03-12T04:34:03.149Z,89.34
2023-03-12T04:35:03.133Z,89.34
2023-03-12T04:36:03.204Z,89.23
2023-03-12T04:37:03.125Z,89.44
2023-03-12T04:38:03.106Z,89.44
2023-03-12T04:39:03.098Z,89.23
2023-03-12T04:40:03.087Z,89.23
2023-03-12T04:41:03.088Z,89.23
2023-03-12T04:42:03.075Z,89.02
2023-03-12T04:43:03.039Z,89.12
2023-03-12T04:44:03.032Z,89.12
2023-03-12T04:45:03.018Z,88.81
2023-03-12T04:46:03.027Z,88.60
2023-03-12T04:47:03.038Z,88.71
2023-03-12T04:48:02.980Z,88.92
2023-03-12T04:49:02.960Z,88.92
2023-03-12T04:50:02.976Z,88.92
2023-03-12T04:51:02.962Z,88.71
2023-03-12T04:52:02.957Z,88.49
2023-03-12T04:53:02.950Z,88.67
2023-03-12T04:54:02.916Z,88.87
2023-03-12T04:55:02.906Z,88.98
2023-03-12T04:56:02.884Z,88.98
2023-03-12T04:57:02.874Z,89.09
2023-03-12T04:58:02.873Z,89.19
2023-03-12T04:59:02.836Z,89.19
2023-03-12T05:00:02.853Z,89.29
2023-03-12T05:01:02.821Z,89.09
2023-03-12T05:02:02.819Z,89.09
2023-03-12T05:03:02.826Z,88.77
2023-03-12T05:04:02.904Z,88.87
2023-03-12T05:05:02.794Z,88.87
2023-03-12T05:06:02.773Z,88.98
2023-03-12T05:07:02.776Z,88.98
2023-03-12T05:08:02.735Z,88.98
2023-03-12T05:09:02.743Z,88.81
2023-03-12T05:10:02.714Z,88.81
2023-03-12T05:11:02.696Z,89.02
2023-03-12T05:12:02.701Z,88.92
2023-03-12T05:13:02.691Z,88.71
2023-03-12T05:14:02.654Z,88.60
2023-03-12T05:15:02.658Z,88.81
2023-03-12T05:16:02.676Z,89.02
2023-03-12T05:17:02.639Z,89.02
2023-03-12T05:18:02.613Z,88.81
2023-03-12T05:19:02.616Z,88.71
2023-03-12T05:20:02.595Z,88.71
2023-03-12T05:21:02.564Z,88.81
2023-03-12T05:22:02.555Z,88.96
2023-03-12T05:23:02.563Z,88.96
2023-03-12T05:24:02.532Z,89.17
2023-03-12T05:25:02.514Z,89.06
2023-03-12T05:26:02.512Z,88.54
2023-03-12T05:27:02.521Z,88.12
2023-03-12T05:28:02.497Z,88.12
2023-03-12T05:29:02.473Z,88.32
2023-03-12T05:30:02.487Z,88.43
2023-03-12T05:31:02.471Z,88.60
2023-03-12T05:32:02.451Z,88.71
2023-03-12T05:33:02.415Z,88.71
2023-03-12T05:34:02.415Z,88.49
2023-03-12T05:35:02.405Z,88.18
2023-03-12T05:36:02.439Z,88.29
2023-03-12T05:37:02.408Z,88.29
2023-03-12T05:38:02.368Z,88.29
2023-03-12T05:39:02.352Z,88.29
2023-03-12T05:40:02.335Z,88.18
2023-03-12T05:41:02.334Z,88.29
2023-03-12T05:42:02.303Z,88.29
2023-03-12T05:43:02.314Z,88.29
2023-03-12T05:44:02.276Z,88.07
2023-03-12T05:45:02.274Z,87.76
2023-03-12T05:46:02.323Z,87.66
2023-03-12T05:47:02.257Z,87.76
2023-03-12T05:48:02.233Z,87.72
2023-03-12T05:49:02.237Z,87.93
2023-03-12T05:50:02.212Z,88.04
2023-03-12T05:51:02.224Z,87.83
2023-03-12T05:52:02.183Z,87.72
2023-03-12T05:53:02.264Z,87.62
2023-03-12T05:54:02.167Z,87.62
2023-03-12T05:55:02.156Z,87.72
2023-03-12T05:56:02.141Z,87.93
2023-03-12T05:57:02.132Z,87.72
2023-03-12T05:58:02.127Z,87.83
2023-03-12T05:59:02.101Z,87.93
2023-03-12T06:00:02.088Z,87.89
2023-03-12T06:01:02.065Z,87.79
2023-03-12T06:02:02.095Z,87.89
2023-03-12T06:03:02.126Z,87.99
2023-03-12T06:04:02.032Z,87.89
2023-03-12T06:05:02.047Z,87.68
2023-03-12T06:06:02.008Z,87.47
2023-03-12T06:07:01.985Z,87.47
2023-03-12T06:08:02.017Z,87.26
2023-03-12T06:09:01.981Z,87.16
2023-03-12T06:10:01.971Z,87.16
2023-03-12T06:11:01.945Z,87.16
2023-03-12T06:12:01.927Z,86.95
2023-03-12T06:13:01.945Z,86.22
2023-03-12T06:14:01.937Z,86.22
2023-03-12T06:15:01.903Z,86.22
2023-03-12T06:16:01.877Z,86.28
2023-03-12T06:17:01.907Z,85.55
2023-03-12T06:18:01.867Z,84.71
2023-03-12T06:19:01.890Z,84.61
2023-03-12T06:20:01.824Z,84.61
2023-03-12T06:21:01.817Z,84.92
2023-03-12T06:22:01.809Z,85.02
2023-03-12T06:23:01.806Z,85.55
2023-03-12T06:24:01.860Z,85.55
2023-03-12T06:25:01.756Z,85.55
2023-03-12T06:26:01.745Z,85.65
2023-03-12T06:27:01.794Z,85.41
2023-03-12T06:28:01.725Z,85.41
2023-03-12T06:29:01.730Z,85.41
2023-03-12T06:30:01.705Z,85.30
2023-03-12T06:31:01.700Z,85.19
2023-03-12T06:32:01.726Z,85.61
2023-03-12T06:33:01.710Z,85.78
2023-03-12T06:34:01.668Z,85.99
2023-03-12T06:35:01.635Z,85.99
2023-03-12T06:36:01.708Z,86.41
2023-03-12T06:37:01.635Z,86.41
2023-03-12T06:38:01.640Z,85.99
2023-03-12T06:39:01.638Z,85.85
2023-03-12T06:40:01.593Z,85.53
2023-03-12T06:41:01.576Z,85.43
2023-03-12T06:42:01.568Z,84.59
2023-03-12T06:43:01.556Z,83.55
2023-03-12T06:44:01.542Z,82.29
2023-03-12T06:45:01.529Z,82.15
2023-03-12T06:46:01.684Z,82.15
2023-03-12T06:47:01.534Z,81.52
2023-03-12T06:48:01.477Z,81.00
2023-03-12T06:49:01.495Z,80.96
2023-03-12T06:50:01.504Z,80.86
2023-03-12T06:51:01.458Z,80.96
2023-03-12T06:52:01.450Z,81.18
2023-03-12T06:53:01.429Z,81.35
2023-03-12T06:54:01.414Z,80.41
2023-03-12T06:55:01.406Z,79.78
2023-03-12T06:56:01.389Z,78.74
2023-03-12T06:57:01.359Z,79.22
2023-03-12T06:58:01.365Z,78.80
2023-03-12T06:59:01.359Z,79.53
2023-03-12T07:00:01.334Z,80.58
2023-03-12T07:01:01.323Z,81.41
2023-03-12T07:02:01.335Z,81.83
2023-03-12T07:03:01.307Z,81.83
2023-03-12T07:04:01.288Z,81.62
2023-03-12T07:05:01.464Z,82.21
2023-03-12T07:06:01.256Z,83.15
2023-03-12T07:07:01.254Z,83.25
2023-03-12T07:08:01.260Z,82.84
2023-03-12T07:09:01.261Z,82.84
2023-03-12T07:10:01.220Z,83.15
2023-03-12T07:11:01.943Z,83.04
2023-03-12T07:12:01.209Z,82.73
2023-03-12T07:13:01.187Z,82.59
2023-03-12T07:14:01.180Z,82.17
2023-03-12T07:15:01.166Z,80.40
2023-03-12T07:16:01.195Z,79.25
2023-03-12T07:17:01.128Z,79.46
2023-03-12T07:18:01.122Z,78.31
2023-03-12T07:19:01.106Z,78.11
2023-03-12T07:20:01.121Z,78.49
2023-03-12T07:21:01.102Z,77.86
2023-03-12T07:22:01.060Z,78.59
2023-03-12T07:23:01.077Z,78.69
2023-03-12T07:24:01.143Z,77.55
2023-03-12T07:25:01.052Z,75.57
2023-03-12T07:26:01.077Z,75.15
2023-03-12T07:27:01.017Z,75.32
2023-03-12T07:28:01.021Z,75.95
2023-03-12T07:29:01.011Z,76.57
2023-03-12T07:30:00.995Z,76.16
2023-03-12T07:31:01.002Z,75.85
2023-03-12T07:32:00.947Z,76.06
2023-03-12T07:33:01.143Z,76.37
2023-03-12T07:34:01.005Z,75.71
2023-03-12T07:35:00.921Z,75.60
2023-03-12T07:36:01.033Z,75.60
2023-03-12T07:37:00.884Z,75.57
2023-03-12T07:38:00.937Z,74.43
2023-03-12T07:39:00.849Z,74.32
2023-03-12T07:40:00.921Z,74.01
2023-03-12T07:41:00.853Z,73.49
2023-03-12T07:42:00.846Z,74.01
2023-03-12T07:43:00.812Z,73.90
2023-03-12T07:44:00.851Z,73.80
2023-03-12T07:45:00.813Z,74.08
2023-03-12T07:46:00.843Z,73.56
2023-03-12T07:47:12.841Z,73.56
2023-03-12T07:48:01.809Z,74.08
2023-03-12T07:49:00.730Z,73.83
2023-03-12T07:50:00.767Z,72.28
2023-03-12T07:51:00.698Z,71.86
2023-03-12T07:52:00.709Z,72.59
2023-03-12T07:53:00.673Z,72.07
2023-03-12T07:54:00.673Z,72.38
2023-03-12T07:55:00.720Z,72.69
2023-03-12T07:56:00.671Z,72.90
2023-03-12T07:57:00.896Z,71.75
2023-03-12T07:58:00.676Z,72.17
2023-03-12T07:59:00.753Z,71.65
2023-03-12T08:00:00.622Z,70.92
2023-03-12T08:01:00.627Z,70.61
2023-03-12T08:02:00.694Z,70.72
2023-03-12T08:03:00.668Z,70.82
2023-03-12T08:04:00.667Z,70.72
2023-03-12T08:05:00.557Z,71.55
2023-03-12T08:06:00.596Z,71.86
2023-03-12T08:07:00.542Z,71.62
2023-03-12T08:08:00.474Z,70.37
2023-03-12T08:09:00.476Z,70.89
2023-03-12T08:10:00.554Z,71.28
2023-03-12T08:11:00.469Z,71.17
2023-03-12T08:12:00.491Z,69.92
2023-03-12T08:13:00.475Z,69.68
2023-03-12T08:14:00.399Z,69.17
2023-03-12T08:15:00.401Z,68.65
2023-03-12T08:16:00.419Z,68.10
2023-03-12T08:17:00.379Z,67.79
2023-03-12T08:18:00.349Z,67.79
2023-03-12T08:19:00.328Z,67.16
2023-03-12T08:20:00.334Z,67.47
2023-03-12T08:21:00.328Z,66.96
2023-03-12T08:22:00.319Z,67.37
2023-03-12T08:23:00.289Z,67.89
2023-03-12T08:24:00.276Z,67.55
2023-03-12T08:25:00.275Z,68.17
2023-03-12T08:26:00.292Z,68.17
2023-03-12T08:27:00.248Z,67.34
2023-03-12T08:28:00.224Z,68.79
2023-03-12T08:29:00.276Z,68.86
2023-03-12T08:30:00.227Z,66.41
2023-03-12T08:31:00.205Z,67.86
2023-03-12T08:32:04.970Z,67.93
2023-03-12T08:33:01.228Z,68.34
2023-03-12T08:34:00.151Z,66.30
2023-03-12T08:35:00.162Z,67.24
2023-03-12T08:36:00.191Z,66.61
2023-03-12T08:37:00.118Z,66.12
2023-03-12T08:38:00.097Z,66.61
2023-03-12T08:39:00.107Z,66.54
2023-03-12T08:40:00.106Z,66.85
2023-03-12T08:41:00.106Z,67.86
2023-03-12T08:42:00.041Z,67.13
2023-03-12T08:43:00.031Z,66.93
2023-03-12T08:44:00.009Z,66.68
2023-03-12T08:45:00.032Z,66.89
2023-03-12T08:46:00.063Z,66.89
2023-03-12T08:46:59.996Z,67.38
2023-03-12T08:47:59.969Z,66.75
2023-03-12T08:48:59.951Z,65.31
2023-03-12T08:49:59.942Z,66.24
2023-03-12T08:50:59.963Z,66.00
2023-03-12T08:51:59.921Z,65.41
2023-03-12T08:52:59.919Z,67.35
2023-03-12T08:53:59.900Z,66.83
2023-03-12T08:54:59.904Z,65.17
2023-03-12T08:55:59.897Z,65.38
2023-03-12T08:56:59.903Z,65.31
2023-03-12T08:57:59.867Z,66.03
2023-03-12T08:58:59.847Z,66.55
2023-03-12T08:59:59.829Z,66.55
2023-03-12T09:00:59.826Z,65.52
2023-03-12T09:01:59.799Z,66.24
2023-03-12T09:02:59.827Z,66.14
2023-03-12T09:03:59.796Z,65.52
2023-03-12T09:04:59.774Z,66.03
2023-03-12T09:05:59.764Z,66.75
2023-03-12T09:06:59.771Z,66.75
2023-03-12T09:07:59.715Z,67.38
2023-03-12T09:08:59.715Z,66.65
2023-03-12T09:09:59.693Z,66.35
2023-03-12T09:10:59.696Z,66.65
2023-03-12T09:11:59.683Z,67.79
2023-03-12T09:12:59.667Z,67.27
2023-03-12T09:14:33.481Z,67.03
2023-03-12T09:15:03.741Z,66.93
2023-03-12T09:15:59.646Z,65.80
2023-03-12T09:16:59.686Z,65.90
2023-03-12T09:17:59.607Z,66.11
2023-03-12T09:18:59.575Z,66.31
2023-03-12T09:19:59.565Z,66.28
2023-03-12T09:20:59.566Z,65.66
2023-03-12T09:21:59.554Z,65.25
2023-03-12T09:22:59.523Z,64.52
2023-03-12T09:23:59.516Z,64.70
2023-03-12T09:24:59.502Z,65.32
2023-03-12T09:25:59.514Z,64.36
2023-03-12T09:26:59.482Z,63.92
2023-03-12T09:27:59.501Z,63.29
2023-03-12T09:28:59.469Z,63.78
2023-03-12T09:30:01.146Z,62.59
2023-03-12T09:30:59.485Z,62.35
2023-03-12T09:31:59.424Z,60.77
2023-03-12T09:32:59.443Z,60.57
2023-03-12T09:33:59.402Z,60.02
2023-03-12T09:34:59.358Z,59.92
2023-03-12T09:35:59.454Z,59.82
2023-03-12T09:36:59.370Z,60.02
2023-03-12T09:37:59.342Z,60.13
2023-03-12T09:38:59.320Z,60.23
2023-03-12T09:39:59.324Z,60.36
2023-03-12T09:40:59.303Z,61.26
2023-03-12T09:41:59.460Z,61.05
2023-03-12T09:42:59.281Z,60.75
2023-03-12T09:43:59.275Z,60.72
2023-03-12T09:44:59.241Z,61.10
2023-03-12T09:45:59.275Z,60.38
2023-03-12T09:46:59.241Z,60.17
2023-03-12T10:03:10.602Z,65.57
2023-03-12T10:04:10.599Z,65.57
2023-03-12T10:05:10.587Z,66.50
2023-03-12T10:06:10.578Z,65.60
2023-03-12T10:07:10.519Z,67.02
2023-03-12T10:08:23.776Z,66.19
2023-03-12T10:09:11.528Z,66.50
2023-03-12T10:10:10.498Z,66.09
2023-03-12T10:11:10.491Z,66.09
2023-03-12T10:12:10.459Z,65.88
2023-03-12T10:13:10.440Z,67.02
2023-03-12T10:14:10.436Z,66.67
2023-03-12T10:15:10.436Z,65.44
2023-03-12T10:16:10.511Z,65.64
2023-03-12T10:17:10.392Z,66.67
2023-03-12T10:18:10.528Z,65.85
2023-03-12T10:19:10.387Z,65.64
2023-03-12T10:20:10.366Z,66.88
2023-03-12T10:21:10.350Z,66.13
2023-03-12T10:22:10.345Z,65.33
2023-03-12T10:23:10.309Z,66.85
2023-03-12T10:24:10.309Z,67.06
2023-03-12T10:25:10.299Z,65.82
2023-03-12T10:26:10.324Z,66.64
2023-03-12T10:27:10.269Z,66.44
2023-03-12T10:28:10.258Z,66.44
2023-03-12T10:29:10.251Z,65.72
2023-03-12T10:30:10.221Z,66.33
2023-03-12T10:31:10.256Z,66.64
2023-03-12T10:32:10.209Z,66.10
2023-03-12T10:33:10.197Z,66.93
2023-03-12T10:34:10.191Z,67.78
2023-03-12T10:35:10.170Z,68.09
2023-03-12T10:36:10.232Z,68.09
2023-03-12T10:37:10.131Z,67.78
2023-03-12T10:38:10.117Z,67.58
2023-03-12T10:39:10.113Z,68.30
2023-03-12T10:40:10.092Z,68.30
2023-03-12T10:41:10.098Z,68.40
2023-03-12T10:42:10.064Z,68.92
2023-03-12T10:43:10.050Z,69.67
2023-03-12T10:44:10.036Z,70.19
2023-03-12T10:45:10.018Z,70.19
2023-03-12T10:46:10.078Z,70.61
2023-03-12T10:47:10.000Z,71.22
2023-03-12T10:48:17.511Z,71.22
2023-03-12T10:49:09.972Z,71.74
2023-03-12T10:50:09.989Z,71.33
2023-03-12T10:51:09.956Z,71.74
2023-03-12T10:52:09.942Z,71.84
2023-03-12T10:53:09.937Z,72.05
2023-03-12T10:54:09.924Z,72.16
2023-03-12T10:55:09.893Z,72.08
2023-03-12T10:56:09.916Z,72.50
2023-03-12T10:57:09.910Z,72.81
2023-03-12T10:58:09.872Z,72.81
2023-03-12T10:59:09.861Z,73.64
2023-03-12T11:00:09.832Z,73.43
2023-03-12T11:01:09.827Z,74.02
2023-03-12T11:02:09.825Z,73.39
2023-03-12T11:03:09.796Z,73.60
2023-03-12T11:04:09.792Z,73.39
2023-03-12T11:05:09.785Z,73.29
2023-03-12T11:06:09.800Z,73.57
2023-03-12T11:07:09.756Z,73.88
2023-03-12T11:08:09.732Z,73.67
2023-03-12T11:09:16.789Z,73.57
2023-03-12T11:10:12.619Z,73.57
2023-03-12T11:11:09.724Z,73.91
2023-03-12T11:12:09.684Z,74.53
2023-03-12T11:13:09.674Z,74.84
2023-03-12T11:14:09.661Z,74.84
2023-03-12T11:15:09.634Z,75.05
2023-03-12T11:16:09.701Z,75.26
2023-03-12T11:17:09.623Z,74.95
2023-03-12T11:18:09.617Z,75.22
2023-03-12T11:19:09.584Z,75.32
2023-03-12T11:20:09.574Z,75.12
2023-03-12T11:21:09.571Z,75.05
2023-03-12T11:22:09.564Z,75.67
2023-03-12T11:23:09.534Z,76.22
2023-03-12T11:24:09.514Z,76.43
2023-03-12T11:25:09.525Z,76.43
2023-03-12T11:26:09.494Z,76.70
2023-03-12T11:27:09.474Z,76.81
2023-03-12T11:28:09.539Z,77.01
2023-03-12T11:29:09.495Z,76.39
2023-03-12T11:30:09.501Z,76.09
2023-03-12T11:31:09.565Z,75.98
2023-03-12T11:32:09.446Z,76.29
2023-03-12T11:33:09.407Z,76.81
2023-03-12T11:34:09.418Z,77.01
2023-03-12T11:35:09.392Z,76.81
2023-03-12T11:36:09.420Z,77.01
2023-03-12T11:37:09.353Z,77.22
2023-03-12T11:38:09.356Z,77.22
2023-03-12T11:39:09.322Z,77.08
2023-03-12T11:40:09.314Z,77.33
2023-03-12T11:41:09.351Z,77.74
2023-03-12T11:42:09.293Z,78.05
2023-03-12T11:43:09.269Z,78.36
2023-03-12T11:44:09.265Z,78.56
2023-03-12T11:45:09.248Z,78.91
2023-03-12T11:46:09.303Z,79.12
2023-03-12T11:47:09.226Z,79.22
2023-03-12T11:48:09.302Z,79.12
2023-03-12T11:49:09.195Z,79.19
2023-03-12T11:50:09.188Z,79.19
2023-03-12T11:51:09.165Z,79.39
2023-03-12T11:52:09.166Z,79.19
2023-03-12T11:53:09.146Z,79.08
2023-03-12T11:54:09.127Z,79.08
2023-03-12T11:55:09.119Z,79.29
2023-03-12T11:56:09.127Z,79.60
2023-03-12T11:57:09.138Z,79.39
2023-03-12T11:58:09.077Z,79.60
2023-03-12T11:59:09.068Z,80.11
2023-03-12T12:00:09.089Z,80.74
2023-03-12T12:01:09.048Z,81.05
2023-03-12T12:02:09.092Z,81.35
2023-03-12T12:03:09.038Z,81.98
2023-03-12T12:04:09.019Z,82.29
2023-03-12T12:05:09.000Z,82.90
2023-03-12T12:06:08.980Z,82.70
2023-03-12T12:07:09.003Z,82.39
2023-03-12T12:08:08.960Z,82.29
2023-03-12T12:09:08.949Z,82.39
2023-03-12T12:10:08.941Z,82.08
2023-03-12T12:11:08.911Z,82.50
2023-03-12T12:12:08.935Z,82.80
2023-03-12T12:13:08.887Z,83.11
2023-03-12T12:14:08.902Z,83.42
2023-03-12T12:15:08.861Z,83.63
2023-03-12T12:16:08.887Z,83.42
2023-03-12T12:17:08.867Z,83.53
2023-03-12T12:18:08.830Z,84.05
2023-03-12T12:19:08.809Z,84.25
2023-03-12T12:20:08.809Z,84.56
2023-03-12T12:21:08.854Z,85.08
2023-03-12T12:22:08.813Z,84.87
2023-03-12T12:23:08.788Z,84.97
2023-03-12T12:24:08.741Z,84.87
2023-03-12T12:25:08.754Z,84.66
2023-03-12T12:26:08.724Z,84.87
2023-03-12T12:27:08.706Z,84.97
2023-03-12T12:28:08.700Z,85.28
2023-03-12T12:29:08.683Z,85.49
2023-03-12T12:30:08.691Z,85.91
2023-03-12T12:31:08.652Z,86.73
2023-03-12T12:32:08.677Z,86.52
2023-03-12T12:33:08.661Z,86.52
2023-03-12T12:34:08.614Z,86.73
2023-03-12T12:35:08.609Z,87.15
2023-03-12T12:36:08.603Z,87.25
2023-03-12T12:37:08.616Z,87.56
2023-03-12T12:38:08.581Z,87.76
2023-03-12T12:39:08.555Z,87.97
2023-03-12T12:40:08.544Z,88.49
2023-03-12T12:41:08.540Z,88.59
2023-03-12T12:42:08.554Z,88.70
2023-03-12T12:43:08.535Z,88.49
2023-03-12T12:44:08.489Z,88.49
2023-03-12T12:45:08.484Z,88.80
2023-03-12T12:46:08.490Z,88.90
2023-03-12T12:47:08.462Z,88.70
2023-03-12T12:48:08.451Z,89.01
2023-03-12T12:49:08.432Z,88.84
2023-03-12T12:50:08.412Z,89.15
2023-03-12T12:51:09.001Z,89.46
2023-03-12T12:52:08.399Z,89.73
2023-03-12T12:53:08.392Z,89.83
2023-03-12T12:54:08.354Z,90.04
2023-03-12T12:55:08.344Z,90.25
2023-03-12T12:56:08.351Z,89.94
2023-03-12T12:57:08.333Z,89.83
2023-03-12T12:58:08.322Z,89.52
2023-03-12T12:59:08.292Z,89.73
2023-03-12T13:00:08.301Z,89.42
2023-03-12T13:01:08.304Z,89.42
2023-03-12T13:02:08.253Z,89.73
2023-03-12T13:03:08.262Z,89.73
2023-03-12T13:04:08.280Z,89.69
2023-03-12T13:05:08.213Z,89.69
2023-03-12T13:06:08.215Z,89.42
2023-03-12T13:07:08.206Z,89.52
2023-03-12T13:08:08.184Z,89.52
2023-03-12T13:09:08.178Z,89.73
2023-03-12T13:10:08.154Z,89.73
2023-03-12T13:11:18.422Z,90.04
2023-03-12T13:12:09.260Z,90.14
2023-03-12T13:13:08.132Z,90.14
2023-03-12T13:14:08.120Z,90.04
2023-03-12T13:15:08.097Z,90.14
2023-03-12T13:16:08.107Z,90.04
2023-03-12T13:17:08.077Z,89.94
2023-03-12T13:18:08.062Z,90.04
2023-03-12T13:19:08.081Z,90.04
2023-03-12T13:20:08.028Z,90.25